sensor_id;sensor_type;location;lat;lon;timestamp;P1;durP1;ratioP1;P2;durP2;ratioP2
4565;SDS011;2295;51.050;14.608;2023-08-20T00:00:13;16.43;;;12.40;;
4565;SDS011;2295;51.050;14.608;2023-08-20T00:02:42;13.23;;;11.80;;
4565;SDS011;2295;51.050;14.608;2023-08-20T00:05:14;17.67;;;12.73;;
4565;SDS011;2295;51.050;14.608;2023-08-20T00:07:43;12.67;;;11.13;;
4565;SDS011;2295;51.050;14.608;2023-08-20T00:10:12;15.37;;;11.90;;
4565;SDS011;2295;51.050;14.608;2023-08-20T00:12:40;12.47;;;11.17;;
4565;SDS011;2295;51.050;14.608;2023-08-20T00:15:09;13.50;;;11.57;;
4565;SDS011;2295;51.050;14.608;2023-08-20T00:17:38;14.37;;;11.67;;
4565;SDS011;2295;51.050;14.608;2023-08-20T00:20:08;13.87;;;11.23;;
4565;SDS011;2295;51.050;14.608;2023-08-20T00:22:41;13.20;;;10.80;;
4565;SDS011;2295;51.050;14.608;2023-08-20T00:25:12;13.30;;;11.20;;
4565;SDS011;2295;51.050;14.608;2023-08-20T00:27:41;13.23;;;11.83;;
4565;SDS011;2295;51.050;14.608;2023-08-20T00:30:10;12.83;;;11.37;;
4565;SDS011;2295;51.050;14.608;2023-08-20T00:32:38;14.90;;;11.67;;
4565;SDS011;2295;51.050;14.608;2023-08-20T00:35:07;13.80;;;11.30;;
4565;SDS011;2295;51.050;14.608;2023-08-20T00:37:36;16.70;;;11.00;;
4565;SDS011;2295;51.050;14.608;2023-08-20T00:40:06;13.93;;;11.50;;
4565;SDS011;2295;51.050;14.608;2023-08-20T00:42:36;11.60;;;10.40;;
4565;SDS011;2295;51.050;14.608;2023-08-20T00:45:05;14.33;;;10.60;;
4565;SDS011;2295;51.050;14.608;2023-08-20T00:47:34;12.13;;;10.93;;
4565;SDS011;2295;51.050;14.608;2023-08-20T00:50:04;13.40;;;11.00;;
4565;SDS011;2295;51.050;14.608;2023-08-20T00:52:33;13.70;;;10.90;;
4565;SDS011;2295;51.050;14.608;2023-08-20T00:55:03;12.27;;;10.97;;
4565;SDS011;2295;51.050;14.608;2023-08-20T00:57:36;17.10;;;10.60;;
4565;SDS011;2295;51.050;14.608;2023-08-20T01:00:06;17.77;;;10.80;;
4565;SDS011;2295;51.050;14.608;2023-08-20T01:02:37;11.47;;;10.37;;
4565;SDS011;2295;51.050;14.608;2023-08-20T01:05:07;13.60;;;10.27;;
4565;SDS011;2295;51.050;14.608;2023-08-20T01:07:39;14.83;;;10.30;;
4565;SDS011;2295;51.050;14.608;2023-08-20T01:10:19;16.10;;;11.03;;
4565;SDS011;2295;51.050;14.608;2023-08-20T01:12:55;18.27;;;9.97;;
4565;SDS011;2295;51.050;14.608;2023-08-20T01:15:23;12.90;;;10.77;;
4565;SDS011;2295;51.050;14.608;2023-08-20T01:17:52;12.40;;;10.30;;
4565;SDS011;2295;51.050;14.608;2023-08-20T01:20:20;10.07;;;9.13;;
4565;SDS011;2295;51.050;14.608;2023-08-20T01:22:58;12.07;;;10.80;;
4565;SDS011;2295;51.050;14.608;2023-08-20T01:25:53;10.80;;;9.70;;
4565;SDS011;2295;51.050;14.608;2023-08-20T01:28:33;12.63;;;9.77;;
4565;SDS011;2295;51.050;14.608;2023-08-20T01:31:02;19.13;;;9.60;;
4565;SDS011;2295;51.050;14.608;2023-08-20T01:33:31;13.73;;;10.73;;
4565;SDS011;2295;51.050;14.608;2023-08-20T01:35:58;11.27;;;9.73;;
4565;SDS011;2295;51.050;14.608;2023-08-20T01:38:27;11.40;;;9.00;;
4565;SDS011;2295;51.050;14.608;2023-08-20T01:40:55;10.17;;;9.27;;
4565;SDS011;2295;51.050;14.608;2023-08-20T01:43:23;10.00;;;9.00;;
4565;SDS011;2295;51.050;14.608;2023-08-20T01:45:53;13.73;;;9.27;;
4565;SDS011;2295;51.050;14.608;2023-08-20T01:48:21;10.63;;;8.80;;
4565;SDS011;2295;51.050;14.608;2023-08-20T01:50:50;14.10;;;9.60;;
4565;SDS011;2295;51.050;14.608;2023-08-20T01:53:18;10.80;;;8.43;;
4565;SDS011;2295;51.050;14.608;2023-08-20T01:55:47;9.60;;;8.43;;
4565;SDS011;2295;51.050;14.608;2023-08-20T01:58:15;13.27;;;9.23;;
4565;SDS011;2295;51.050;14.608;2023-08-20T02:00:44;9.50;;;8.20;;
4565;SDS011;2295;51.050;14.608;2023-08-20T02:03:15;10.40;;;8.40;;
4565;SDS011;2295;51.050;14.608;2023-08-20T02:05:44;11.90;;;9.40;;
4565;SDS011;2295;51.050;14.608;2023-08-20T02:08:12;10.30;;;8.83;;
4565;SDS011;2295;51.050;14.608;2023-08-20T02:10:40;16.73;;;8.93;;
4565;SDS011;2295;51.050;14.608;2023-08-20T02:13:09;10.70;;;8.53;;
4565;SDS011;2295;51.050;14.608;2023-08-20T02:15:37;10.60;;;9.30;;
4565;SDS011;2295;51.050;14.608;2023-08-20T02:18:05;9.47;;;8.57;;
4565;SDS011;2295;51.050;14.608;2023-08-20T02:20:35;10.00;;;8.47;;
4565;SDS011;2295;51.050;14.608;2023-08-20T02:23:03;9.47;;;8.50;;
4565;SDS011;2295;51.050;14.608;2023-08-20T02:25:32;12.23;;;8.33;;
4565;SDS011;2295;51.050;14.608;2023-08-20T02:28:01;9.00;;;8.10;;
4565;SDS011;2295;51.050;14.608;2023-08-20T02:30:30;12.43;;;7.93;;
4565;SDS011;2295;51.050;14.608;2023-08-20T02:32:58;10.40;;;8.03;;
4565;SDS011;2295;51.050;14.608;2023-08-20T02:35:27;10.77;;;8.60;;
4565;SDS011;2295;51.050;14.608;2023-08-20T02:37:56;10.23;;;8.40;;
4565;SDS011;2295;51.050;14.608;2023-08-20T02:40:25;9.43;;;8.50;;
4565;SDS011;2295;51.050;14.608;2023-08-20T02:42:54;9.80;;;7.97;;
4565;SDS011;2295;51.050;14.608;2023-08-20T02:45:22;10.20;;;8.20;;
4565;SDS011;2295;51.050;14.608;2023-08-20T02:47:50;10.90;;;8.73;;
4565;SDS011;2295;51.050;14.608;2023-08-20T02:50:19;10.10;;;9.00;;
4565;SDS011;2295;51.050;14.608;2023-08-20T02:52:47;10.53;;;9.33;;
4565;SDS011;2295;51.050;14.608;2023-08-20T02:55:17;9.70;;;8.77;;
4565;SDS011;2295;51.050;14.608;2023-08-20T02:57:45;9.77;;;8.80;;
4565;SDS011;2295;51.050;14.608;2023-08-20T03:00:13;13.23;;;8.37;;
4565;SDS011;2295;51.050;14.608;2023-08-20T03:02:42;12.37;;;9.00;;
4565;SDS011;2295;51.050;14.608;2023-08-20T03:05:10;9.53;;;8.53;;
4565;SDS011;2295;51.050;14.608;2023-08-20T03:07:38;9.77;;;8.77;;
4565;SDS011;2295;51.050;14.608;2023-08-20T03:10:06;12.53;;;8.90;;
4565;SDS011;2295;51.050;14.608;2023-08-20T03:12:36;9.00;;;8.27;;
4565;SDS011;2295;51.050;14.608;2023-08-20T03:15:05;16.40;;;9.53;;
4565;SDS011;2295;51.050;14.608;2023-08-20T03:17:34;8.23;;;7.53;;
4565;SDS011;2295;51.050;14.608;2023-08-20T03:20:03;9.00;;;8.07;;
4565;SDS011;2295;51.050;14.608;2023-08-20T03:22:33;11.47;;;9.10;;
4565;SDS011;2295;51.050;14.608;2023-08-20T03:25:01;10.10;;;9.00;;
4565;SDS011;2295;51.050;14.608;2023-08-20T03:27:29;13.43;;;8.63;;
4565;SDS011;2295;51.050;14.608;2023-08-20T03:29:59;9.43;;;8.43;;
4565;SDS011;2295;51.050;14.608;2023-08-20T03:32:27;19.13;;;9.20;;
4565;SDS011;2295;51.050;14.608;2023-08-20T03:34:56;10.00;;;9.00;;
4565;SDS011;2295;51.050;14.608;2023-08-20T03:37:25;12.27;;;8.53;;
4565;SDS011;2295;51.050;14.608;2023-08-20T03:39:54;9.20;;;8.30;;
4565;SDS011;2295;51.050;14.608;2023-08-20T03:42:22;9.17;;;8.23;;
4565;SDS011;2295;51.050;14.608;2023-08-20T03:44:50;8.63;;;7.83;;
4565;SDS011;2295;51.050;14.608;2023-08-20T03:47:20;11.00;;;8.70;;
4565;SDS011;2295;51.050;14.608;2023-08-20T03:49:48;17.30;;;8.77;;
4565;SDS011;2295;51.050;14.608;2023-08-20T03:52:16;9.90;;;7.30;;
4565;SDS011;2295;51.050;14.608;2023-08-20T03:54:45;8.50;;;7.60;;
4565;SDS011;2295;51.050;14.608;2023-08-20T03:57:13;13.23;;;7.63;;
4565;SDS011;2295;51.050;14.608;2023-08-20T03:59:41;7.87;;;7.17;;
4565;SDS011;2295;51.050;14.608;2023-08-20T04:02:11;8.97;;;7.73;;
4565;SDS011;2295;51.050;14.608;2023-08-20T04:04:41;14.37;;;8.00;;
4565;SDS011;2295;51.050;14.608;2023-08-20T04:07:09;8.90;;;7.93;;
4565;SDS011;2295;51.050;14.608;2023-08-20T04:09:38;8.53;;;7.70;;
4565;SDS011;2295;51.050;14.608;2023-08-20T04:12:06;9.07;;;7.73;;
4565;SDS011;2295;51.050;14.608;2023-08-20T04:14:35;11.47;;;7.93;;
4565;SDS011;2295;51.050;14.608;2023-08-20T04:17:03;8.67;;;7.63;;
4565;SDS011;2295;51.050;14.608;2023-08-20T04:19:31;9.57;;;7.20;;
4565;SDS011;2295;51.050;14.608;2023-08-20T04:22:01;7.67;;;7.07;;
4565;SDS011;2295;51.050;14.608;2023-08-20T04:24:29;8.73;;;7.83;;
4565;SDS011;2295;51.050;14.608;2023-08-20T04:26:58;12.40;;;7.30;;
4565;SDS011;2295;51.050;14.608;2023-08-20T04:29:26;7.77;;;6.73;;
4565;SDS011;2295;51.050;14.608;2023-08-20T04:31:54;17.03;;;7.47;;
4565;SDS011;2295;51.050;14.608;2023-08-20T04:34:23;11.17;;;7.83;;
4565;SDS011;2295;51.050;14.608;2023-08-20T04:36:51;9.70;;;8.10;;
4565;SDS011;2295;51.050;14.608;2023-08-20T04:39:21;7.93;;;7.13;;
4565;SDS011;2295;51.050;14.608;2023-08-20T04:41:49;11.20;;;7.50;;
4565;SDS011;2295;51.050;14.608;2023-08-20T04:44:17;7.60;;;6.90;;
4565;SDS011;2295;51.050;14.608;2023-08-20T04:46:46;8.50;;;7.70;;
4565;SDS011;2295;51.050;14.608;2023-08-20T04:49:14;7.90;;;7.20;;
4565;SDS011;2295;51.050;14.608;2023-08-20T04:51:42;10.70;;;7.17;;
4565;SDS011;2295;51.050;14.608;2023-08-20T04:54:11;9.23;;;8.33;;
4565;SDS011;2295;51.050;14.608;2023-08-20T04:56:40;8.50;;;7.50;;
4565;SDS011;2295;51.050;14.608;2023-08-20T04:59:08;8.47;;;7.57;;
4565;SDS011;2295;51.050;14.608;2023-08-20T05:01:37;11.60;;;8.17;;
4565;SDS011;2295;51.050;14.608;2023-08-20T05:04:05;8.27;;;7.57;;
4565;SDS011;2295;51.050;14.608;2023-08-20T05:06:34;9.07;;;8.03;;
4565;SDS011;2295;51.050;14.608;2023-08-20T05:09:02;12.23;;;7.20;;
4565;SDS011;2295;51.050;14.608;2023-08-20T05:11:31;12.53;;;7.80;;
4565;SDS011;2295;51.050;14.608;2023-08-20T05:14:01;9.27;;;7.93;;
4565;SDS011;2295;51.050;14.608;2023-08-20T05:16:29;8.07;;;7.47;;
4565;SDS011;2295;51.050;14.608;2023-08-20T05:18:58;9.43;;;8.43;;
4565;SDS011;2295;51.050;14.608;2023-08-20T05:21:26;8.70;;;7.80;;
4565;SDS011;2295;51.050;14.608;2023-08-20T05:23:55;8.30;;;7.53;;
4565;SDS011;2295;51.050;14.608;2023-08-20T05:26:23;10.20;;;7.33;;
4565;SDS011;2295;51.050;14.608;2023-08-20T05:28:51;8.47;;;7.40;;
4565;SDS011;2295;51.050;14.608;2023-08-20T05:31:21;8.00;;;7.20;;
4565;SDS011;2295;51.050;14.608;2023-08-20T05:33:49;7.50;;;6.80;;
4565;SDS011;2295;51.050;14.608;2023-08-20T05:36:17;8.07;;;7.23;;
4565;SDS011;2295;51.050;14.608;2023-08-20T05:38:46;8.10;;;7.30;;
4565;SDS011;2295;51.050;14.608;2023-08-20T05:41:14;11.83;;;7.70;;
4565;SDS011;2295;51.050;14.608;2023-08-20T05:43:42;8.37;;;6.73;;
4565;SDS011;2295;51.050;14.608;2023-08-20T05:46:11;10.60;;;7.27;;
4565;SDS011;2295;51.050;14.608;2023-08-20T05:48:40;7.10;;;6.23;;
4565;SDS011;2295;51.050;14.608;2023-08-20T05:51:08;9.60;;;7.03;;
4565;SDS011;2295;51.050;14.608;2023-08-20T05:53:37;6.70;;;6.10;;
4565;SDS011;2295;51.050;14.608;2023-08-20T05:56:05;7.60;;;6.80;;
4565;SDS011;2295;51.050;14.608;2023-08-20T05:58:33;8.00;;;6.60;;
4565;SDS011;2295;51.050;14.608;2023-08-20T06:01:02;7.73;;;6.80;;
4565;SDS011;2295;51.050;14.608;2023-08-20T06:03:30;9.83;;;6.80;;
4565;SDS011;2295;51.050;14.608;2023-08-20T06:06:00;8.23;;;6.70;;
4565;SDS011;2295;51.050;14.608;2023-08-20T06:08:31;8.13;;;7.03;;
4565;SDS011;2295;51.050;14.608;2023-08-20T06:11:00;8.83;;;7.10;;
4565;SDS011;2295;51.050;14.608;2023-08-20T06:13:28;13.00;;;6.63;;
4565;SDS011;2295;51.050;14.608;2023-08-20T06:15:56;16.20;;;7.80;;
4565;SDS011;2295;51.050;14.608;2023-08-20T06:18:24;7.53;;;6.73;;
4565;SDS011;2295;51.050;14.608;2023-08-20T06:20:53;12.33;;;6.77;;
4565;SDS011;2295;51.050;14.608;2023-08-20T06:23:22;7.03;;;6.50;;
4565;SDS011;2295;51.050;14.608;2023-08-20T06:26:09;7.67;;;6.97;;
4565;SDS011;2295;51.050;14.608;2023-08-20T06:28:38;7.40;;;6.70;;
4565;SDS011;2295;51.050;14.608;2023-08-20T06:31:06;10.33;;;6.77;;
4565;SDS011;2295;51.050;14.608;2023-08-20T06:33:34;11.73;;;7.20;;
4565;SDS011;2295;51.050;14.608;2023-08-20T06:36:03;10.40;;;7.60;;
4565;SDS011;2295;51.050;14.608;2023-08-20T06:38:32;11.27;;;7.77;;
4565;SDS011;2295;51.050;14.608;2023-08-20T06:41:01;12.30;;;6.80;;
4565;SDS011;2295;51.050;14.608;2023-08-20T06:43:29;7.40;;;6.70;;
4565;SDS011;2295;51.050;14.608;2023-08-20T06:46:00;19.53;;;7.80;;
4565;SDS011;2295;51.050;14.608;2023-08-20T06:48:28;9.50;;;7.33;;
4565;SDS011;2295;51.050;14.608;2023-08-20T06:50:56;7.50;;;6.80;;
4565;SDS011;2295;51.050;14.608;2023-08-20T06:53:25;8.17;;;7.37;;
4565;SDS011;2295;51.050;14.608;2023-08-20T06:55:55;10.50;;;7.27;;
4565;SDS011;2295;51.050;14.608;2023-08-20T06:58:23;8.10;;;7.30;;
4565;SDS011;2295;51.050;14.608;2023-08-20T07:00:52;7.90;;;7.20;;
4565;SDS011;2295;51.050;14.608;2023-08-20T07:03:20;10.33;;;7.80;;
4565;SDS011;2295;51.050;14.608;2023-08-20T07:05:48;10.83;;;8.23;;
4565;SDS011;2295;51.050;14.608;2023-08-20T07:08:17;9.13;;;7.37;;
4565;SDS011;2295;51.050;14.608;2023-08-20T07:10:45;8.83;;;7.17;;
4565;SDS011;2295;51.050;14.608;2023-08-20T07:13:15;11.77;;;8.07;;
4565;SDS011;2295;51.050;14.608;2023-08-20T07:15:43;11.57;;;9.53;;
4565;SDS011;2295;51.050;14.608;2023-08-20T07:18:14;9.50;;;8.23;;
4565;SDS011;2295;51.050;14.608;2023-08-20T07:20:43;11.47;;;9.20;;
4565;SDS011;2295;51.050;14.608;2023-08-20T07:23:12;8.27;;;7.53;;
4565;SDS011;2295;51.050;14.608;2023-08-20T07:25:40;9.27;;;7.97;;
4565;SDS011;2295;51.050;14.608;2023-08-20T07:28:10;9.93;;;8.30;;
4565;SDS011;2295;51.050;14.608;2023-08-20T07:30:40;8.93;;;8.00;;
4565;SDS011;2295;51.050;14.608;2023-08-20T07:33:08;8.90;;;8.10;;
4565;SDS011;2295;51.050;14.608;2023-08-20T07:35:36;9.20;;;8.20;;
4565;SDS011;2295;51.050;14.608;2023-08-20T07:38:05;10.60;;;8.93;;
4565;SDS011;2295;51.050;14.608;2023-08-20T07:40:33;9.07;;;7.83;;
4565;SDS011;2295;51.050;14.608;2023-08-20T07:43:01;8.47;;;7.37;;
4565;SDS011;2295;51.050;14.608;2023-08-20T07:45:29;10.10;;;6.63;;
4565;SDS011;2295;51.050;14.608;2023-08-20T07:47:59;7.23;;;6.63;;
4565;SDS011;2295;51.050;14.608;2023-08-20T07:50:33;9.43;;;5.90;;
4565;SDS011;2295;51.050;14.608;2023-08-20T07:53:01;6.27;;;5.73;;
4565;SDS011;2295;51.050;14.608;2023-08-20T07:55:29;5.70;;;5.20;;
4565;SDS011;2295;51.050;14.608;2023-08-20T07:58:01;9.27;;;6.17;;
4565;SDS011;2295;51.050;14.608;2023-08-20T08:00:35;5.83;;;4.50;;
4565;SDS011;2295;51.050;14.608;2023-08-20T08:03:07;6.47;;;5.23;;
4565;SDS011;2295;51.050;14.608;2023-08-20T08:05:36;5.63;;;5.13;;
4565;SDS011;2295;51.050;14.608;2023-08-20T08:08:05;6.30;;;5.80;;
4565;SDS011;2295;51.050;14.608;2023-08-20T08:10:33;6.80;;;6.10;;
4565;SDS011;2295;51.050;14.608;2023-08-20T08:13:05;11.20;;;6.80;;
4565;SDS011;2295;51.050;14.608;2023-08-20T08:15:37;7.27;;;6.40;;
4565;SDS011;2295;51.050;14.608;2023-08-20T08:18:05;13.50;;;7.47;;
4565;SDS011;2295;51.050;14.608;2023-08-20T08:20:35;11.23;;;7.77;;
4565;SDS011;2295;51.050;14.608;2023-08-20T08:23:03;8.03;;;7.20;;
4565;SDS011;2295;51.050;14.608;2023-08-20T08:25:32;10.07;;;9.17;;
4565;SDS011;2295;51.050;14.608;2023-08-20T08:28:00;10.00;;;9.00;;
4565;SDS011;2295;51.050;14.608;2023-08-20T08:30:29;13.03;;;8.03;;
4565;SDS011;2295;51.050;14.608;2023-08-20T08:33:00;10.70;;;7.70;;
4565;SDS011;2295;51.050;14.608;2023-08-20T08:35:30;8.97;;;8.10;;
4565;SDS011;2295;51.050;14.608;2023-08-20T08:37:58;8.43;;;7.73;;
4565;SDS011;2295;51.050;14.608;2023-08-20T08:40:29;8.77;;;7.00;;
4565;SDS011;2295;51.050;14.608;2023-08-20T08:42:58;10.73;;;7.23;;
4565;SDS011;2295;51.050;14.608;2023-08-20T08:45:27;9.30;;;7.30;;
4565;SDS011;2295;51.050;14.608;2023-08-20T08:48:00;7.70;;;7.10;;
4565;SDS011;2295;51.050;14.608;2023-08-20T08:50:32;10.70;;;8.00;;
4565;SDS011;2295;51.050;14.608;2023-08-20T08:53:00;8.20;;;7.33;;
4565;SDS011;2295;51.050;14.608;2023-08-20T08:55:29;10.03;;;8.80;;
4565;SDS011;2295;51.050;14.608;2023-08-20T08:57:57;9.90;;;8.17;;
4565;SDS011;2295;51.050;14.608;2023-08-20T09:00:25;9.40;;;8.20;;
4565;SDS011;2295;51.050;14.608;2023-08-20T09:02:56;8.47;;;7.83;;
4565;SDS011;2295;51.050;14.608;2023-08-20T09:05:24;11.93;;;7.23;;
4565;SDS011;2295;51.050;14.608;2023-08-20T09:07:56;7.20;;;6.60;;
4565;SDS011;2295;51.050;14.608;2023-08-20T09:10:25;6.83;;;6.33;;
4565;SDS011;2295;51.050;14.608;2023-08-20T09:12:55;6.37;;;5.90;;
4565;SDS011;2295;51.050;14.608;2023-08-20T09:15:31;6.60;;;6.00;;
4565;SDS011;2295;51.050;14.608;2023-08-20T09:18:01;6.27;;;5.93;;
4565;SDS011;2295;51.050;14.608;2023-08-20T09:20:34;6.43;;;5.83;;
4565;SDS011;2295;51.050;14.608;2023-08-20T09:23:04;6.33;;;5.40;;
4565;SDS011;2295;51.050;14.608;2023-08-20T09:25:39;6.20;;;5.70;;
4565;SDS011;2295;51.050;14.608;2023-08-20T09:28:07;5.00;;;4.80;;
4565;SDS011;2295;51.050;14.608;2023-08-20T09:30:38;5.07;;;4.70;;
4565;SDS011;2295;51.050;14.608;2023-08-20T09:33:09;5.50;;;5.00;;
4565;SDS011;2295;51.050;14.608;2023-08-20T09:35:42;5.37;;;4.93;;
4565;SDS011;2295;51.050;14.608;2023-08-20T09:38:22;5.50;;;5.10;;
4565;SDS011;2295;51.050;14.608;2023-08-20T09:40:51;5.43;;;5.13;;
4565;SDS011;2295;51.050;14.608;2023-08-20T09:43:24;6.50;;;6.00;;
4565;SDS011;2295;51.050;14.608;2023-08-20T09:45:56;5.70;;;5.27;;
4565;SDS011;2295;51.050;14.608;2023-08-20T09:48:28;8.90;;;6.40;;
4565;SDS011;2295;51.050;14.608;2023-08-20T09:51:04;7.30;;;6.60;;
4565;SDS011;2295;51.050;14.608;2023-08-20T09:53:38;6.80;;;6.00;;
4565;SDS011;2295;51.050;14.608;2023-08-20T09:56:26;6.17;;;5.87;;
4565;SDS011;2295;51.050;14.608;2023-08-20T09:58:56;6.13;;;5.73;;
4565;SDS011;2295;51.050;14.608;2023-08-20T10:01:25;5.60;;;5.30;;
4565;SDS011;2295;51.050;14.608;2023-08-20T10:03:55;7.20;;;6.50;;
4565;SDS011;2295;51.050;14.608;2023-08-20T10:06:24;6.67;;;6.10;;
4565;SDS011;2295;51.050;14.608;2023-08-20T10:08:54;6.40;;;6.00;;
4565;SDS011;2295;51.050;14.608;2023-08-20T10:11:23;7.20;;;6.70;;
4565;SDS011;2295;51.050;14.608;2023-08-20T10:13:54;7.97;;;7.00;;
4565;SDS011;2295;51.050;14.608;2023-08-20T10:16:22;6.67;;;6.17;;
4565;SDS011;2295;51.050;14.608;2023-08-20T10:19:01;8.03;;;7.00;;
4565;SDS011;2295;51.050;14.608;2023-08-20T10:21:30;7.37;;;6.87;;
4565;SDS011;2295;51.050;14.608;2023-08-20T10:24:04;12.40;;;7.90;;
4565;SDS011;2295;51.050;14.608;2023-08-20T10:26:33;9.10;;;8.40;;
4565;SDS011;2295;51.050;14.608;2023-08-20T10:32:04;9.60;;;8.70;;
4565;SDS011;2295;51.050;14.608;2023-08-20T10:34:33;9.07;;;8.17;;
4565;SDS011;2295;51.050;14.608;2023-08-20T10:37:10;9.40;;;8.50;;
4565;SDS011;2295;51.050;14.608;2023-08-20T10:39:41;13.03;;;9.47;;
4565;SDS011;2295;51.050;14.608;2023-08-20T10:42:21;11.03;;;9.33;;
4565;SDS011;2295;51.050;14.608;2023-08-20T10:44:59;10.73;;;8.83;;
4565;SDS011;2295;51.050;14.608;2023-08-20T10:47:36;9.97;;;8.97;;
4565;SDS011;2295;51.050;14.608;2023-08-20T10:50:09;9.63;;;8.60;;
4565;SDS011;2295;51.050;14.608;2023-08-20T10:52:40;14.27;;;9.40;;
4565;SDS011;2295;51.050;14.608;2023-08-20T10:55:16;9.57;;;8.67;;
4565;SDS011;2295;51.050;14.608;2023-08-20T10:57:55;8.90;;;8.00;;
4565;SDS011;2295;51.050;14.608;2023-08-20T11:00:26;10.83;;;6.90;;
4565;SDS011;2295;51.050;14.608;2023-08-20T11:02:58;7.10;;;6.57;;
4565;SDS011;2295;51.050;14.608;2023-08-20T11:05:27;6.00;;;5.60;;
4565;SDS011;2295;51.050;14.608;2023-08-20T11:07:55;6.90;;;5.97;;
4565;SDS011;2295;51.050;14.608;2023-08-20T11:10:25;7.97;;;5.80;;
4565;SDS011;2295;51.050;14.608;2023-08-20T11:12:53;5.80;;;5.40;;
4565;SDS011;2295;51.050;14.608;2023-08-20T11:15:22;5.73;;;5.33;;
4565;SDS011;2295;51.050;14.608;2023-08-20T11:17:53;6.20;;;5.70;;
4565;SDS011;2295;51.050;14.608;2023-08-20T11:20:21;6.97;;;6.40;;
4565;SDS011;2295;51.050;14.608;2023-08-20T11:22:50;6.70;;;5.77;;
4565;SDS011;2295;51.050;14.608;2023-08-20T11:25:18;8.70;;;5.10;;
4565;SDS011;2295;51.050;14.608;2023-08-20T11:27:48;5.87;;;5.37;;
4565;SDS011;2295;51.050;14.608;2023-08-20T11:30:18;7.33;;;4.60;;
4565;SDS011;2295;51.050;14.608;2023-08-20T11:32:47;5.10;;;4.80;;
4565;SDS011;2295;51.050;14.608;2023-08-20T11:35:19;4.90;;;4.50;;
4565;SDS011;2295;51.050;14.608;2023-08-20T11:37:48;5.40;;;4.90;;
4565;SDS011;2295;51.050;14.608;2023-08-20T11:40:20;4.57;;;4.27;;
4565;SDS011;2295;51.050;14.608;2023-08-20T11:42:50;4.57;;;4.27;;
4565;SDS011;2295;51.050;14.608;2023-08-20T11:45:18;5.83;;;3.77;;
4565;SDS011;2295;51.050;14.608;2023-08-20T11:47:46;4.70;;;4.40;;
4565;SDS011;2295;51.050;14.608;2023-08-20T11:50:15;6.03;;;4.60;;
4565;SDS011;2295;51.050;14.608;2023-08-20T11:52:43;6.23;;;4.83;;
4565;SDS011;2295;51.050;14.608;2023-08-20T11:55:11;4.70;;;4.30;;
4565;SDS011;2295;51.050;14.608;2023-08-20T11:57:39;5.87;;;4.90;;
4565;SDS011;2295;51.050;14.608;2023-08-20T12:00:10;4.60;;;4.40;;
4565;SDS011;2295;51.050;14.608;2023-08-20T12:02:53;5.10;;;4.77;;
4565;SDS011;2295;51.050;14.608;2023-08-20T12:05:28;5.80;;;5.27;;
4565;SDS011;2295;51.050;14.608;2023-08-20T12:07:57;5.43;;;4.90;;
4565;SDS011;2295;51.050;14.608;2023-08-20T12:10:26;5.70;;;5.20;;
4565;SDS011;2295;51.050;14.608;2023-08-20T12:12:56;5.63;;;5.23;;
4565;SDS011;2295;51.050;14.608;2023-08-20T12:15:29;5.27;;;4.83;;
4565;SDS011;2295;51.050;14.608;2023-08-20T12:18:01;8.03;;;4.10;;
4565;SDS011;2295;51.050;14.608;2023-08-20T12:20:32;3.70;;;3.60;;
4565;SDS011;2295;51.050;14.608;2023-08-20T12:23:02;4.40;;;4.10;;
4565;SDS011;2295;51.050;14.608;2023-08-20T12:25:32;6.00;;;4.40;;
4565;SDS011;2295;51.050;14.608;2023-08-20T12:28:02;4.77;;;4.37;;
4565;SDS011;2295;51.050;14.608;2023-08-20T12:30:33;4.00;;;3.80;;
4565;SDS011;2295;51.050;14.608;2023-08-20T12:33:05;4.23;;;3.67;;
4565;SDS011;2295;51.050;14.608;2023-08-20T12:35:34;5.07;;;4.67;;
4565;SDS011;2295;51.050;14.608;2023-08-20T12:38:02;4.07;;;3.67;;
4565;SDS011;2295;51.050;14.608;2023-08-20T12:40:31;3.47;;;3.27;;
4565;SDS011;2295;51.050;14.608;2023-08-20T12:42:59;4.70;;;4.30;;
4565;SDS011;2295;51.050;14.608;2023-08-20T12:45:28;5.73;;;3.73;;
4565;SDS011;2295;51.050;14.608;2023-08-20T12:47:58;4.87;;;4.37;;
4565;SDS011;2295;51.050;14.608;2023-08-20T12:50:28;4.30;;;4.00;;
4565;SDS011;2295;51.050;14.608;2023-08-20T12:52:56;8.27;;;4.87;;
4565;SDS011;2295;51.050;14.608;2023-08-20T12:55:25;4.50;;;4.20;;
4565;SDS011;2295;51.050;14.608;2023-08-20T12:57:54;4.70;;;4.40;;
4565;SDS011;2295;51.050;14.608;2023-08-20T13:00:23;7.73;;;4.63;;
4565;SDS011;2295;51.050;14.608;2023-08-20T13:02:53;4.33;;;4.13;;
4565;SDS011;2295;51.050;14.608;2023-08-20T13:05:24;4.70;;;4.23;;
4565;SDS011;2295;51.050;14.608;2023-08-20T13:07:53;4.87;;;4.67;;
4565;SDS011;2295;51.050;14.608;2023-08-20T13:10:22;4.40;;;4.00;;
4565;SDS011;2295;51.050;14.608;2023-08-20T13:13:00;4.50;;;4.20;;
4565;SDS011;2295;51.050;14.608;2023-08-20T13:15:29;5.10;;;4.80;;
4565;SDS011;2295;51.050;14.608;2023-08-20T13:18:03;8.53;;;4.87;;
4565;SDS011;2295;51.050;14.608;2023-08-20T13:20:35;5.50;;;4.87;;
4565;SDS011;2295;51.050;14.608;2023-08-20T13:23:04;5.63;;;5.33;;
4565;SDS011;2295;51.050;14.608;2023-08-20T13:25:35;5.30;;;5.00;;
4565;SDS011;2295;51.050;14.608;2023-08-20T13:28:03;8.23;;;4.77;;
4565;SDS011;2295;51.050;14.608;2023-08-20T13:30:35;5.33;;;4.83;;
4565;SDS011;2295;51.050;14.608;2023-08-20T13:33:03;4.83;;;4.40;;
4565;SDS011;2295;51.050;14.608;2023-08-20T13:35:32;5.33;;;4.83;;
4565;SDS011;2295;51.050;14.608;2023-08-20T13:38:05;13.23;;;5.00;;
4565;SDS011;2295;51.050;14.608;2023-08-20T13:40:33;4.83;;;4.43;;
4565;SDS011;2295;51.050;14.608;2023-08-20T13:43:01;6.07;;;4.13;;
4565;SDS011;2295;51.050;14.608;2023-08-20T13:45:30;6.90;;;4.73;;
4565;SDS011;2295;51.050;14.608;2023-08-20T13:47:58;4.90;;;4.50;;
4565;SDS011;2295;51.050;14.608;2023-08-20T13:50:30;4.73;;;4.43;;
4565;SDS011;2295;51.050;14.608;2023-08-20T13:52:58;4.00;;;3.80;;
4565;SDS011;2295;51.050;14.608;2023-08-20T13:55:28;5.10;;;4.67;;
4565;SDS011;2295;51.050;14.608;2023-08-20T13:57:57;4.93;;;4.67;;
4565;SDS011;2295;51.050;14.608;2023-08-20T14:00:29;4.97;;;4.67;;
4565;SDS011;2295;51.050;14.608;2023-08-20T14:03:03;5.23;;;4.83;;
4565;SDS011;2295;51.050;14.608;2023-08-20T14:05:32;8.27;;;4.50;;
4565;SDS011;2295;51.050;14.608;2023-08-20T14:08:01;5.30;;;4.40;;
4565;SDS011;2295;51.050;14.608;2023-08-20T14:10:31;5.17;;;4.70;;
4565;SDS011;2295;51.050;14.608;2023-08-20T14:13:00;5.13;;;4.63;;
4565;SDS011;2295;51.050;14.608;2023-08-20T14:15:28;5.03;;;4.63;;
4565;SDS011;2295;51.050;14.608;2023-08-20T14:17:56;5.30;;;4.70;;
4565;SDS011;2295;51.050;14.608;2023-08-20T14:20:25;5.63;;;5.20;;
4565;SDS011;2295;51.050;14.608;2023-08-20T14:22:56;6.93;;;5.27;;
4565;SDS011;2295;51.050;14.608;2023-08-20T14:25:24;5.30;;;4.90;;
4565;SDS011;2295;51.050;14.608;2023-08-20T14:27:54;5.13;;;4.67;;
4565;SDS011;2295;51.050;14.608;2023-08-20T14:30:22;8.93;;;5.17;;
4565;SDS011;2295;51.050;14.608;2023-08-20T14:32:50;7.03;;;4.70;;
4565;SDS011;2295;51.050;14.608;2023-08-20T14:35:19;6.20;;;5.10;;
4565;SDS011;2295;51.050;14.608;2023-08-20T14:37:51;10.10;;;5.50;;
4565;SDS011;2295;51.050;14.608;2023-08-20T14:40:20;5.43;;;5.10;;
4565;SDS011;2295;51.050;14.608;2023-08-20T14:42:49;7.50;;;5.70;;
4565;SDS011;2295;51.050;14.608;2023-08-20T14:45:19;5.00;;;4.70;;
4565;SDS011;2295;51.050;14.608;2023-08-20T14:47:47;5.63;;;5.33;;
4565;SDS011;2295;51.050;14.608;2023-08-20T14:50:16;6.63;;;6.13;;
4565;SDS011;2295;51.050;14.608;2023-08-20T14:52:44;5.70;;;5.30;;
4565;SDS011;2295;51.050;14.608;2023-08-20T14:55:18;7.23;;;6.60;;
4565;SDS011;2295;51.050;14.608;2023-08-20T14:57:46;5.80;;;5.40;;
4565;SDS011;2295;51.050;14.608;2023-08-20T15:00:18;5.33;;;4.77;;
4565;SDS011;2295;51.050;14.608;2023-08-20T15:02:52;5.67;;;5.17;;
4565;SDS011;2295;51.050;14.608;2023-08-20T15:05:23;5.27;;;4.73;;
4565;SDS011;2295;51.050;14.608;2023-08-20T15:07:57;5.53;;;5.13;;
4565;SDS011;2295;51.050;14.608;2023-08-20T15:10:34;7.37;;;5.40;;
4565;SDS011;2295;51.050;14.608;2023-08-20T15:13:04;4.97;;;4.67;;